createdAt,value
2019-04-10T00:02:07.100Z,12.03
2019-04-10T00:04:36.718Z,12.06
2019-04-10T00:07:12.676Z,12.93
2019-04-10T00:09:36.040Z,12.49
2019-04-10T00:12:05.408Z,12.74
2019-04-10T00:14:34.519Z,13.38
2019-04-10T00:17:03.184Z,13.36
2019-04-10T00:19:32.870Z,12.81
2019-04-10T00:22:02.739Z,12.31
2019-04-10T00:24:32.302Z,12.96
2019-04-10T00:27:02.073Z,11.82
2019-04-10T00:29:30.806Z,11.61
2019-04-10T00:32:01.696Z,10.87
2019-04-10T00:34:29.761Z,11.70
2019-04-10T00:36:58.364Z,11.63
2019-04-10T00:39:26.984Z,11.79
2019-04-10T00:41:56.676Z,11.46
2019-04-10T00:44:25.826Z,12.02
2019-04-10T00:46:54.854Z,11.46
2019-04-10T00:49:23.953Z,11.66
2019-04-10T00:51:52.649Z,11.00
2019-04-10T00:54:21.697Z,11.01
2019-04-10T00:56:50.671Z,11.86
2019-04-10T00:59:19.849Z,11.68
2019-04-10T01:01:48.534Z,11.32
2019-04-10T01:04:18.131Z,10.64
2019-04-10T01:06:46.915Z,10.04
2019-04-10T01:09:15.517Z,10.93
2019-04-10T01:11:44.130Z,10.25
2019-04-10T01:14:13.691Z,11.02
2019-04-10T01:16:42.314Z,10.58
2019-04-10T01:19:12.001Z,11.18
2019-04-10T01:21:40.606Z,11.52
2019-04-10T01:24:09.214Z,11.39
2019-04-10T01:26:37.830Z,11.59
2019-04-10T01:29:06.436Z,11.67
2019-04-10T01:31:35.154Z,10.03
2019-04-10T01:34:03.746Z,10.88
2019-04-10T01:36:33.297Z,10.54
2019-04-10T01:39:02.171Z,10.77
2019-04-10T01:41:30.778Z,10.91
2019-04-10T01:43:59.623Z,10.44
2019-04-10T01:46:28.533Z,10.29
2019-04-10T01:48:57.507Z,10.40
2019-04-10T01:51:26.182Z,9.69
2019-04-10T01:53:54.807Z,11.08
2019-04-10T01:56:30.230Z,10.40
2019-04-10T01:58:53.822Z,10.47
2019-04-10T02:01:29.635Z,10.20
2019-04-10T02:03:58.542Z,10.31
2019-04-10T02:06:27.464Z,10.98
2019-04-10T02:08:56.400Z,10.73
2019-04-10T02:11:25.941Z,10.80
2019-04-10T02:13:54.603Z,10.52
2019-04-10T02:16:24.614Z,10.52
2019-04-10T02:18:54.115Z,11.23
2019-04-10T02:21:23.463Z,11.25
2019-04-10T02:23:52.398Z,10.47
2019-04-10T02:26:21.328Z,10.67
2019-04-10T02:28:51.279Z,9.91
2019-04-10T02:31:21.551Z,10.30
2019-04-10T02:33:51.773Z,9.87
2019-04-10T02:36:21.302Z,11.25
2019-04-10T02:39:03.085Z,10.22
2019-04-10T02:41:21.579Z,10.50
2019-04-10T02:43:51.275Z,10.55
2019-04-10T02:46:20.066Z,10.77
2019-04-10T02:48:50.094Z,10.52
2019-04-10T02:51:20.034Z,10.07
2019-04-10T02:53:50.194Z,10.50
2019-04-10T02:56:20.810Z,10.17
2019-04-10T02:58:51.341Z,9.65
2019-04-10T03:01:19.970Z,9.89
2019-04-10T03:03:50.121Z,9.92
2019-04-10T03:06:18.971Z,9.86
2019-04-10T03:09:05.951Z,10.51
2019-04-10T03:11:20.033Z,11.14
2019-04-10T03:13:49.067Z,10.43
2019-04-10T03:16:17.782Z,9.91
2019-04-10T03:18:47.282Z,9.92
2019-04-10T03:21:15.968Z,9.49
2019-04-10T03:23:45.434Z,9.43
2019-04-10T03:26:15.221Z,9.68
2019-04-10T03:28:44.176Z,9.71
2019-04-10T03:31:13.620Z,9.14
2019-04-10T03:34:05.538Z,9.10
2019-04-10T03:36:40.197Z,10.17
2019-04-10T03:39:10.624Z,10.53
2019-04-10T03:41:40.149Z,10.01
2019-04-10T03:44:08.788Z,9.44
2019-04-10T03:46:39.946Z,9.26
2019-04-10T03:49:07.801Z,9.26
2019-04-10T03:51:36.668Z,10.50
2019-04-10T03:54:05.396Z,10.04
2019-04-10T03:56:34.052Z,10.37
2019-04-10T03:59:02.876Z,10.19
2019-04-10T04:01:32.041Z,10.01
2019-04-10T04:04:01.494Z,9.65
2019-04-10T04:06:30.133Z,9.26
2019-04-10T04:09:06.891Z,9.15
2019-04-10T04:11:30.045Z,9.61
2019-04-10T04:13:59.782Z,10.39
2019-04-10T04:16:28.439Z,10.00
2019-04-10T04:18:57.656Z,8.99
2019-04-10T04:21:26.251Z,9.17
2019-04-10T04:23:55.207Z,8.79
2019-04-10T04:26:23.847Z,9.19
2019-04-10T04:28:52.448Z,9.23
2019-04-10T04:31:21.227Z,8.99
2019-04-10T04:33:49.837Z,9.09
2019-04-10T04:36:18.538Z,8.72
2019-04-10T04:38:47.174Z,9.26
2019-04-10T04:41:15.814Z,9.22
2019-04-10T04:43:45.986Z,9.45
2019-04-10T04:46:14.754Z,8.59
2019-04-10T04:48:43.407Z,9.38
2019-04-10T04:51:11.999Z,9.04
2019-04-10T04:53:41.814Z,9.65
2019-04-10T04:56:11.512Z,9.48
2019-04-10T04:58:40.161Z,9.77
2019-04-10T05:01:08.766Z,9.11
2019-04-10T05:03:37.601Z,9.16
2019-04-10T05:06:06.167Z,9.97
2019-04-10T05:08:34.779Z,9.69
2019-04-10T05:11:04.343Z,9.75
2019-04-10T05:13:32.954Z,9.56
2019-04-10T05:16:02.639Z,9.68
2019-04-10T05:18:31.735Z,9.20
2019-04-10T05:21:00.935Z,10.02
2019-04-10T05:23:29.590Z,9.82
2019-04-10T05:25:59.197Z,9.77
2019-04-10T05:28:29.951Z,9.22
2019-04-10T05:31:01.022Z,9.95
2019-04-10T05:33:30.912Z,9.90
2019-04-10T05:35:59.593Z,9.40
2019-04-10T05:38:29.137Z,8.46
2019-04-10T05:40:57.775Z,9.23
2019-04-10T05:43:26.408Z,9.74
2019-04-10T05:45:55.163Z,10.30
2019-04-10T05:48:24.967Z,10.18
2019-04-10T05:51:02.370Z,9.99
2019-04-10T05:53:24.651Z,10.27
2019-04-10T05:55:53.789Z,10.21
2019-04-10T05:58:22.460Z,10.09
2019-04-10T06:00:51.454Z,9.56
2019-04-10T06:03:20.725Z,9.20
2019-04-10T06:05:49.337Z,9.94
2019-04-10T06:08:18.177Z,9.95
2019-04-10T06:10:47.808Z,9.84
2019-04-10T06:13:17.167Z,10.18
2019-04-10T06:15:45.791Z,9.53
2019-04-10T06:18:15.307Z,9.45
2019-04-10T06:20:45.163Z,9.99
2019-04-10T06:23:14.779Z,10.27
2019-04-10T06:25:43.715Z,11.29
2019-04-10T06:28:12.954Z,13.22
2019-04-10T06:30:41.869Z,15.50
2019-04-10T06:33:11.636Z,15.68
2019-04-10T06:35:40.356Z,15.68
2019-04-10T06:38:09.008Z,15.77
2019-04-10T06:40:37.737Z,16.91
2019-04-10T06:43:08.508Z,17.32
2019-04-10T06:45:37.207Z,18.73
2019-04-10T06:48:06.817Z,18.29
2019-04-10T06:50:35.595Z,19.64
2019-04-10T06:53:04.245Z,19.91
2019-04-10T06:55:32.803Z,20.46
2019-04-10T06:58:02.617Z,20.74
2019-04-10T07:00:32.389Z,20.13
2019-04-10T07:03:01.319Z,20.59
2019-04-10T07:05:37.943Z,21.67
2019-04-10T07:08:10.972Z,21.70
2019-04-10T07:10:40.870Z,21.67
2019-04-10T07:13:04.332Z,22.21
2019-04-10T07:15:32.391Z,21.18
2019-04-10T07:18:03.143Z,21.61
2019-04-10T07:20:32.266Z,22.16
2019-04-10T07:23:00.883Z,19.97
2019-04-10T07:25:29.892Z,21.91
2019-04-10T07:27:58.603Z,21.17
2019-04-10T07:30:28.026Z,22.27
2019-04-10T07:32:56.673Z,21.58
2019-04-10T07:35:25.748Z,22.44
2019-04-10T07:37:57.761Z,21.56
2019-04-10T07:40:25.013Z,23.00
2019-04-10T07:42:54.579Z,22.59
2019-04-10T07:45:26.431Z,23.81
2019-04-10T07:47:53.958Z,23.92
2019-04-10T07:50:22.678Z,23.79
2019-04-10T07:52:52.115Z,23.29
2019-04-10T07:55:21.108Z,24.56
2019-04-10T07:57:51.776Z,25.42
2019-04-10T08:00:20.690Z,25.38
2019-04-10T08:02:49.304Z,25.57
2019-04-10T08:05:18.858Z,26.02
2019-04-10T08:07:47.507Z,25.10
2019-04-10T08:10:16.251Z,25.73
2019-04-10T08:12:50.092Z,27.10
2019-04-10T08:15:15.226Z,22.21
2019-04-10T08:17:44.446Z,21.47
2019-04-10T08:20:13.399Z,21.45
2019-04-10T08:22:42.754Z,20.93
2019-04-10T08:25:11.412Z,22.16
2019-04-10T08:27:40.064Z,23.70
2019-04-10T08:30:11.094Z,21.84
2019-04-10T08:32:50.976Z,23.01
2019-04-10T08:35:11.241Z,24.34
2019-04-10T08:37:40.982Z,25.17
2019-04-10T08:40:11.543Z,24.46
2019-04-10T08:42:41.583Z,21.61
2019-04-10T08:45:11.386Z,19.01
2019-04-10T08:47:40.045Z,20.07
2019-04-10T08:50:09.783Z,20.92
2019-04-10T08:52:39.078Z,20.87
2019-04-10T08:55:08.263Z,21.24
2019-04-10T08:57:36.885Z,21.89
2019-04-10T09:00:07.993Z,21.71
2019-04-10T09:02:38.019Z,22.87
2019-04-10T09:05:06.836Z,22.23
2019-04-10T09:07:35.923Z,22.40
2019-04-10T09:10:05.947Z,21.88
2019-04-10T09:12:34.700Z,18.61
2019-04-10T09:15:03.432Z,20.88
2019-04-10T09:17:31.999Z,20.25
2019-04-10T09:20:00.707Z,21.52
2019-04-10T09:22:41.887Z,22.41
2019-04-10T09:25:00.703Z,22.03
2019-04-10T09:27:29.341Z,24.84
2019-04-10T09:29:57.962Z,23.08
2019-04-10T09:32:26.612Z,21.21
2019-04-10T09:34:56.185Z,22.49
2019-04-10T09:37:24.796Z,23.32
2019-04-10T09:39:54.707Z,25.31
2019-04-10T09:42:23.799Z,25.00
2019-04-10T09:44:52.801Z,24.18
2019-04-10T09:47:22.765Z,23.00
2019-04-10T09:49:51.514Z,24.60
2019-04-10T09:52:20.217Z,24.48
2019-04-10T09:54:48.961Z,23.62
2019-04-10T09:57:18.537Z,24.97
2019-04-10T09:59:47.367Z,23.57
2019-04-10T10:02:16.673Z,23.47
2019-04-10T10:04:46.293Z,23.39
2019-04-10T10:07:14.900Z,23.67
2019-04-10T10:09:43.521Z,22.54
2019-04-10T10:12:12.280Z,22.36
2019-04-10T10:14:42.157Z,23.28
2019-04-10T10:17:10.845Z,22.38
2019-04-10T10:19:40.709Z,20.46
2019-04-10T10:22:09.436Z,19.97
2019-04-10T10:24:38.482Z,21.59
2019-04-10T10:27:07.498Z,22.02
2019-04-10T10:29:36.167Z,20.91
2019-04-10T10:32:04.884Z,23.66
2019-04-10T10:34:34.581Z,25.70
2019-04-10T10:37:03.947Z,26.04
2019-04-10T10:39:32.762Z,25.91
2019-04-10T10:42:01.328Z,23.66
2019-04-10T10:44:30.220Z,24.36
2019-04-10T10:46:59.954Z,24.23
2019-04-10T10:49:28.787Z,24.19
2019-04-10T10:51:57.404Z,24.28
2019-04-10T10:54:26.817Z,24.39
2019-04-10T10:56:57.137Z,24.53
2019-04-10T10:59:27.344Z,24.26
2019-04-10T11:01:56.072Z,24.08
2019-04-10T11:04:24.729Z,24.46
2019-04-10T11:06:59.381Z,23.93
2019-04-10T11:09:23.994Z,23.78
2019-04-10T11:11:53.745Z,23.27
2019-04-10T11:14:23.656Z,24.74
2019-04-10T11:16:53.555Z,23.61
2019-04-10T11:19:23.458Z,24.47
2019-04-10T11:21:52.428Z,24.03
2019-04-10T11:24:21.245Z,25.38
2019-04-10T11:26:50.510Z,25.56
2019-04-10T11:29:21.815Z,23.53
2019-04-10T11:31:50.639Z,23.27
2019-04-10T11:34:19.271Z,23.17
2019-04-10T11:36:48.748Z,20.74
2019-04-10T11:39:23.359Z,21.13
2019-04-10T11:41:50.306Z,23.56
2019-04-10T11:44:20.347Z,25.01
2019-04-10T11:46:49.576Z,24.41
2019-04-10T11:49:22.198Z,24.09
2019-04-10T11:51:52.729Z,23.64
2019-04-10T11:54:25.044Z,23.87
2019-04-10T11:56:53.357Z,23.10
2019-04-10T11:59:23.652Z,22.95
2019-04-10T12:01:58.130Z,24.05
2019-04-10T12:04:23.291Z,23.62
2019-04-10T12:06:55.095Z,23.60
2019-04-10T12:10:08.120Z,23.74
2019-04-10T12:11:53.070Z,22.14
2019-04-10T12:14:21.716Z,22.58
2019-04-10T12:16:51.511Z,20.29
2019-04-10T12:19:22.718Z,21.06
2019-04-10T12:21:50.601Z,21.38
2019-04-10T12:24:19.303Z,20.99
2019-04-10T12:26:47.907Z,19.50
2019-04-10T12:29:16.550Z,19.07
2019-04-10T12:31:48.352Z,19.01
2019-04-10T12:34:18.016Z,18.41
2019-04-10T12:36:46.868Z,18.80
2019-04-10T12:39:16.200Z,19.16
2019-04-10T12:41:45.829Z,18.37
2019-04-10T12:44:15.627Z,20.19
2019-04-10T12:46:45.566Z,18.80
2019-04-10T12:49:15.070Z,18.76
2019-04-10T12:51:43.819Z,19.14
2019-04-10T12:54:12.423Z,19.20
2019-04-10T12:56:42.092Z,18.38
2019-04-10T12:59:11.127Z,18.80
2019-04-10T13:01:40.812Z,18.65
2019-04-10T13:04:09.631Z,18.05
2019-04-10T13:06:38.292Z,18.54
2019-04-10T13:09:11.830Z,19.18
2019-04-10T13:11:39.273Z,19.34
2019-04-10T13:14:08.453Z,17.49
2019-04-10T13:16:37.001Z,18.38
2019-04-10T13:19:05.616Z,18.64
2019-04-10T13:21:34.682Z,18.21
2019-04-10T13:24:03.719Z,18.50
2019-04-10T13:26:32.380Z,19.08
2019-04-10T13:29:00.919Z,20.01
2019-04-10T13:31:29.730Z,19.49
2019-04-10T13:33:58.390Z,18.76
2019-04-10T13:36:27.283Z,16.99
2019-04-10T13:38:56.127Z,18.54
2019-04-10T13:41:24.743Z,18.47
2019-04-10T13:43:53.985Z,18.23
2019-04-10T13:46:22.700Z,18.30
2019-04-10T13:48:51.480Z,17.92
2019-04-10T13:51:20.055Z,18.05
2019-04-10T13:53:48.701Z,18.31
2019-04-10T13:56:17.487Z,18.38
2019-04-10T13:58:46.751Z,18.81
2019-04-10T14:01:21.286Z,19.24
2019-04-10T14:03:50.374Z,18.38
2019-04-10T14:06:19.260Z,17.40
2019-04-10T14:09:04.488Z,17.94
2019-04-10T14:11:19.363Z,17.08
2019-04-10T14:13:48.361Z,17.45
2019-04-10T14:16:17.014Z,17.74
2019-04-10T14:18:46.151Z,18.05
2019-04-10T14:21:16.051Z,17.23
2019-04-10T14:23:45.338Z,17.15
2019-04-10T14:26:42.112Z,17.87
2019-04-10T14:29:07.156Z,17.37
2019-04-10T14:31:39.181Z,17.59
2019-04-10T14:34:07.801Z,18.39
2019-04-10T14:36:36.446Z,18.23
2019-04-10T14:39:16.740Z,17.15
2019-04-10T14:41:42.512Z,16.73
2019-04-10T14:44:12.437Z,17.38
2019-04-10T14:46:42.118Z,17.32
2019-04-10T14:49:11.141Z,16.42
2019-04-10T14:51:40.809Z,16.90
2019-04-10T14:54:09.554Z,17.96
2019-04-10T14:56:38.157Z,16.39
2019-04-10T14:59:07.194Z,16.83
2019-04-10T15:01:35.927Z,16.11
2019-04-10T15:04:04.697Z,17.06
2019-04-10T15:06:33.440Z,17.55
2019-04-10T15:09:02.021Z,16.79
2019-04-10T15:11:30.902Z,16.69
2019-04-10T15:13:59.560Z,17.09
2019-04-10T15:16:29.274Z,17.50
2019-04-10T15:18:58.483Z,17.65
2019-04-10T15:21:27.166Z,17.39
2019-04-10T15:23:55.766Z,17.89
2019-04-10T15:26:24.494Z,17.36
2019-04-10T15:28:54.108Z,16.86
2019-04-10T15:31:24.962Z,16.83
2019-04-10T15:33:53.831Z,16.61
2019-04-10T15:36:22.773Z,17.74
2019-04-10T15:38:52.479Z,16.58
2019-04-10T15:41:21.283Z,16.81
2019-04-10T15:43:49.989Z,16.19
2019-04-10T15:46:19.153Z,16.32
2019-04-10T15:48:48.807Z,17.04
2019-04-10T15:51:18.237Z,17.06
2019-04-10T15:53:47.301Z,17.81
2019-04-10T15:56:16.124Z,17.56
2019-04-10T15:58:45.774Z,17.49
2019-04-10T16:01:18.081Z,17.36
2019-04-10T16:03:47.185Z,16.81
2019-04-10T16:06:15.924Z,16.47
2019-04-10T16:08:44.831Z,17.52
2019-04-10T16:11:38.412Z,16.34
2019-04-10T16:14:17.885Z,15.40
2019-04-10T16:17:01.161Z,14.51
2019-04-10T16:19:37.145Z,15.33
2019-04-10T16:22:12.033Z,15.69
2019-04-10T16:24:40.840Z,15.98
2019-04-10T16:27:09.474Z,16.44
2019-04-10T16:29:38.251Z,17.02
2019-04-10T16:32:08.611Z,16.44
2019-04-10T16:34:37.211Z,16.37
2019-04-10T16:37:06.115Z,16.13
2019-04-10T16:39:34.747Z,16.52
2019-04-10T16:42:03.358Z,15.85
2019-04-10T16:44:33.031Z,15.69
2019-04-10T16:47:01.683Z,15.65
2019-04-10T16:49:30.915Z,15.53
2019-04-10T16:52:00.790Z,16.36
2019-04-10T16:54:29.464Z,16.11
2019-04-10T16:56:58.276Z,16.56
2019-04-10T16:59:27.839Z,15.35
2019-04-10T17:01:57.314Z,15.80
2019-04-10T17:04:26.168Z,15.97
2019-04-10T17:06:54.780Z,15.73
2019-04-10T17:09:25.490Z,15.46
2019-04-10T17:11:56.148Z,15.71
2019-04-10T17:14:24.690Z,15.82
2019-04-10T17:16:53.710Z,15.60
2019-04-10T17:19:23.616Z,14.08
2019-04-10T17:21:52.426Z,15.52
2019-04-10T17:24:21.275Z,15.64
2019-04-10T17:26:51.001Z,14.39
2019-04-10T17:29:20.799Z,15.69
2019-04-10T17:31:49.471Z,15.69
2019-04-10T17:34:18.731Z,15.38
2019-04-10T17:36:47.412Z,15.51
2019-04-10T17:39:18.018Z,15.51
2019-04-10T17:41:48.162Z,14.79
2019-04-10T17:44:17.972Z,15.01
2019-04-10T17:46:47.061Z,15.08
2019-04-10T17:49:17.010Z,14.30
2019-04-10T17:51:45.947Z,15.02
2019-04-10T17:54:14.793Z,14.72
2019-04-10T17:56:44.416Z,13.82
2019-04-10T17:59:14.108Z,14.40
2019-04-10T18:01:43.248Z,14.94
2019-04-10T18:04:11.894Z,14.84
2019-04-10T18:06:43.891Z,14.78
2019-04-10T18:09:11.751Z,14.78
2019-04-10T18:11:41.435Z,14.44
2019-04-10T18:14:11.147Z,14.59
2019-04-10T18:16:40.121Z,12.94
2019-04-10T18:19:08.787Z,14.09
2019-04-10T18:21:37.410Z,14.53
2019-04-10T18:24:06.273Z,14.46
2019-04-10T18:26:36.036Z,12.86
2019-04-10T18:29:05.949Z,13.92
2019-04-10T18:31:34.803Z,13.84
2019-04-10T18:34:07.066Z,13.87
2019-04-10T18:36:33.860Z,13.70
2019-04-10T18:39:02.484Z,14.40
2019-04-10T18:41:31.845Z,12.98
2019-04-10T18:44:00.573Z,13.35
2019-04-10T18:46:29.356Z,13.96
2019-04-10T18:48:58.983Z,13.17
2019-04-10T18:51:27.767Z,13.60
2019-04-10T18:53:57.313Z,12.96
2019-04-10T18:56:27.188Z,13.35
2019-04-10T18:59:10.629Z,12.80
2019-04-10T19:01:50.211Z,13.42
2019-04-10T19:04:27.438Z,13.48
2019-04-10T19:07:00.758Z,12.91
2019-04-10T19:09:30.678Z,13.33
2019-04-10T19:12:00.343Z,12.95
2019-04-10T19:14:30.235Z,13.15
2019-04-10T19:17:00.424Z,13.13
2019-04-10T19:19:29.240Z,12.78
2019-04-10T19:21:57.953Z,13.15
2019-04-10T19:24:28.142Z,13.07
2019-04-10T19:26:57.806Z,12.99
2019-04-10T19:29:27.579Z,12.00
2019-04-10T19:31:58.386Z,12.84
2019-04-10T19:34:27.519Z,13.35
2019-04-10T19:36:56.411Z,12.83
2019-04-10T19:39:26.224Z,13.17
2019-04-10T19:41:55.657Z,12.50
2019-04-10T19:44:24.518Z,12.88
2019-04-10T19:46:53.587Z,12.24
2019-04-10T19:49:22.249Z,13.24
2019-04-10T19:51:50.930Z,12.86
2019-04-10T19:54:19.514Z,12.90
2019-04-10T19:56:48.822Z,13.12
2019-04-10T19:59:18.695Z,12.50
2019-04-10T20:01:48.471Z,12.62
2019-04-10T20:04:17.388Z,12.52
2019-04-10T20:06:46.805Z,12.56
2019-04-10T20:09:16.588Z,12.86
2019-04-10T20:11:52.042Z,12.66
2019-04-10T20:14:16.767Z,12.37
2019-04-10T20:16:45.396Z,12.15
2019-04-10T20:19:14.974Z,11.90
2019-04-10T20:21:45.763Z,11.76
2019-04-10T20:24:14.008Z,12.46
2019-04-10T20:26:43.375Z,12.37
2019-04-10T20:29:12.979Z,12.23
2019-04-10T20:31:41.692Z,12.37
2019-04-10T20:34:11.443Z,12.16
2019-04-10T20:36:40.252Z,11.98
2019-04-10T20:39:12.738Z,12.09
2019-04-10T20:41:49.489Z,11.71
2019-04-10T20:44:11.850Z,11.73
2019-04-10T20:46:40.452Z,11.92
2019-04-10T20:49:10.021Z,11.84
2019-04-10T20:51:39.805Z,11.65
2019-04-10T20:54:08.660Z,11.14
2019-04-10T20:56:37.266Z,12.00
2019-04-10T20:59:05.864Z,11.61
2019-04-10T21:01:35.115Z,11.47
2019-04-10T21:04:03.718Z,11.73
2019-04-10T21:06:32.315Z,11.53
2019-04-10T21:09:01.184Z,11.78
2019-04-10T21:11:29.751Z,11.17
2019-04-10T21:13:58.662Z,11.47
2019-04-10T21:16:27.520Z,11.34
2019-04-10T21:18:56.207Z,11.12
2019-04-10T21:21:24.823Z,10.74
2019-04-10T21:23:54.263Z,10.65
2019-04-10T21:26:23.940Z,10.96
2019-04-10T21:28:53.622Z,10.63
2019-04-10T21:31:53.135Z,10.53
2019-04-10T21:34:30.368Z,10.41
2019-04-10T21:36:59.770Z,10.39
2019-04-10T21:39:28.346Z,10.31
2019-04-10T21:42:08.395Z,10.20
2019-04-10T21:44:27.294Z,10.41
2019-04-10T21:46:57.104Z,9.95
2019-04-10T21:49:26.146Z,9.74
2019-04-10T21:51:55.816Z,9.79
2019-04-10T21:54:24.741Z,9.71
2019-04-10T21:56:53.550Z,9.89
2019-04-10T21:59:22.654Z,9.71
2019-04-10T22:01:51.400Z,9.65
2019-04-10T22:04:21.008Z,8.81
2019-04-10T22:07:14.702Z,9.19
2019-04-10T22:09:52.935Z,9.25
2019-04-10T22:12:31.701Z,9.27
2019-04-10T22:14:56.205Z,9.17
2019-04-10T22:17:24.827Z,8.97
2019-04-10T22:19:54.919Z,8.74
2019-04-10T22:22:23.727Z,9.37
2019-04-10T22:24:52.665Z,9.43
2019-04-10T22:27:21.266Z,9.20
2019-04-10T22:29:50.052Z,9.44
2019-04-10T22:32:18.868Z,8.82
2019-04-10T22:34:47.478Z,9.10
2019-04-10T22:37:16.919Z,8.67
2019-04-10T22:39:45.618Z,9.21
2019-04-10T22:42:16.040Z,9.05
2019-04-10T22:44:45.657Z,9.22
2019-04-10T22:47:15.067Z,8.96
2019-04-10T22:49:43.673Z,8.96
2019-04-10T22:52:12.264Z,8.71
2019-04-10T22:54:40.928Z,9.14
2019-04-10T22:57:10.458Z,8.93
2019-04-10T22:59:40.361Z,8.68
2019-04-10T23:02:12.927Z,8.75
2019-04-10T23:04:39.616Z,8.62
2019-04-10T23:07:09.301Z,8.82
2019-04-10T23:09:38.249Z,8.42
2019-04-10T23:12:07.885Z,8.41
2019-04-10T23:14:36.645Z,8.53
2019-04-10T23:17:05.330Z,8.24
2019-04-10T23:19:34.212Z,8.62
2019-04-10T23:22:03.101Z,8.52
2019-04-10T23:24:31.871Z,8.31
2019-04-10T23:27:01.742Z,8.06
2019-04-10T23:29:30.982Z,8.43
2019-04-10T23:32:00.094Z,8.55
2019-04-10T23:34:29.015Z,8.12
2019-04-10T23:36:58.319Z,8.46
2019-04-10T23:39:28.134Z,8.42
2019-04-10T23:41:57.034Z,8.38
2019-04-10T23:44:25.648Z,7.90
2019-04-10T23:46:54.252Z,8.55
2019-04-10T23:49:23.538Z,8.23
2019-04-10T23:51:52.245Z,8.25
2019-04-10T23:54:21.486Z,8.25
2019-04-10T23:56:50.810Z,8.23
2019-04-10T23:59:20.442Z,8.21
